Time;durP1;ratioP1;P1;durP2;ratioP2;P2;SDS_P1;SDS_P2;PMS_P1;PMS_P2;Temp;Humidity;BMP_temperature;BMP_pressure;BME280_temperature;BME280_humidity;BME280_pressure;Samples;Min_cycle;Max_cycle;Signal;HPM_P1;HPM_P2
2022/03/23 00:00:43;;;;;;;;;46.75;40.75;;;;;13.36;38.30;102144.69;5077305;27;45246;-77
2022/03/23 00:03:10;;;;;;;;;48.25;38.75;;;;;13.38;38.18;102142.94;5076754;27;46469;-76
2022/03/23 00:05:41;;;;;;;;;43.75;36.75;;;;;13.36;37.96;102143.78;5065707;28;45471;-77
2022/03/23 00:08:07;;;;;;;;;40.00;35.75;;;;;13.33;37.58;102149.91;5075546;27;46070;-80
2022/03/23 00:10:34;;;;;;;;;46.50;37.00;;;;;13.32;38.22;102153.44;5068692;28;45542;-76
2022/03/23 00:13:00;;;;;;;;;45.50;37.50;;;;;13.31;37.49;102150.75;5078765;27;45283;-76
2022/03/23 00:15:27;;;;;;;;;44.00;36.25;;;;;13.27;37.77;102147.16;5077803;27;45188;-77
2022/03/23 00:17:53;;;;;;;;;48.75;39.75;;;;;13.24;37.84;102149.75;5061237;28;46118;-78
2022/03/23 00:20:19;;;;;;;;;36.25;33.50;;;;;13.25;37.93;102155.94;5078556;27;45487;-77
2022/03/23 00:22:44;;;;;;;;;50.00;37.00;;;;;13.19;37.43;102156.69;5077619;28;45275;-78
2022/03/23 00:25:10;;;;;;;;;46.50;39.00;;;;;13.18;37.26;102151.34;5078200;27;45312;-76
2022/03/23 00:27:36;;;;;;;;;47.50;36.25;;;;;13.20;37.49;102166.41;5078483;28;48461;-76
2022/03/23 00:30:01;;;;;;;;;43.75;36.75;;;;;13.19;37.62;102167.28;5078678;27;45428;-77
2022/03/23 00:32:27;;;;;;;;;42.75;36.25;;;;;13.11;37.54;102143.28;5078269;27;45261;-77
2022/03/23 00:34:52;;;;;;;;;36.00;30.75;;;;;13.06;37.91;102144.94;5078350;27;45250;-78
2022/03/23 00:37:18;;;;;;;;;44.25;36.75;;;;;13.16;37.41;102168.94;5078587;27;46278;-78
2022/03/23 00:39:43;;;;;;;;;39.00;35.25;;;;;13.12;37.74;102158.31;5078184;28;45258;-78
2022/03/23 00:42:09;;;;;;;;;36.50;34.25;;;;;13.11;37.54;102160.91;5077792;27;45219;-77
2022/03/23 00:44:34;;;;;;;;;39.75;37.00;;;;;13.06;36.58;102165.22;5078751;28;45284;-78
2022/03/23 00:47:00;;;;;;;;;40.75;32.00;;;;;13.08;36.67;102166.16;5077630;27;45452;-78
2022/03/23 00:49:25;;;;;;;;;35.25;32.25;;;;;13.07;37.61;102159.97;5075454;27;45461;-77
2022/03/23 00:51:53;;;;;;;;;48.00;37.00;;;;;13.02;37.06;102156.31;5078436;27;45424;-78
2022/03/23 00:54:19;;;;;;;;;40.00;34.00;;;;;13.00;37.34;102168.63;5078445;27;45377;-78
2022/03/23 00:56:45;;;;;;;;;42.00;37.00;;;;;12.93;37.25;102156.13;5075919;27;47100;-77
2022/03/23 00:59:11;;;;;;;;;46.75;35.25;;;;;12.87;37.27;102156.03;5077297;27;45442;-77
2022/03/23 01:01:38;;;;;;;;;34.50;32.75;;;;;12.91;36.90;102168.44;5078172;27;45434;-79
2022/03/23 01:04:03;;;;;;;;;40.50;34.75;;;;;12.89;37.33;102171.91;5077897;27;45483;-79
2022/03/23 01:06:29;;;;;;;;;45.50;35.75;;;;;12.67;37.45;102139.75;5077039;27;46257;-78
2022/03/23 01:08:54;;;;;;;;;35.25;34.00;;;;;12.80;38.24;102168.22;5077898;27;45290;-78
2022/03/23 01:11:20;;;;;;;;;40.50;36.25;;;;;12.80;37.55;102169.97;5076811;27;45210;-77
2022/03/23 01:13:45;;;;;;;;;42.50;36.50;;;;;12.77;37.79;102175.22;5077452;27;45950;-76
2022/03/23 01:16:12;;;;;;;;;41.00;34.50;;;;;12.52;37.67;102132.38;5077298;27;46301;-75
2022/03/23 01:18:37;;;;;;;;;49.50;39.50;;;;;12.71;39.05;102165.38;5076925;28;45385;-78
2022/03/23 01:21:03;;;;;;;;;46.25;39.00;;;;;12.60;37.97;102150.16;5078408;27;45210;-78
2022/03/23 01:23:28;;;;;;;;;41.75;34.50;;;;;12.65;38.97;102169.63;5078041;27;45445;-74
2022/03/23 01:25:53;;;;;;;;;39.75;35.75;;;;;12.62;38.45;102169.56;5077006;28;46179;-75
2022/03/23 01:28:19;;;;;;;;;37.75;35.75;;;;;12.49;38.45;102144.63;5076646;27;45514;-76
2022/03/23 01:30:44;;;;;;;;;36.75;34.25;;;;;12.49;38.36;102144.63;5077923;27;45793;-79
2022/03/23 01:33:10;;;;;;;;;44.50;37.75;;;;;12.54;38.90;102169.41;5077375;27;45519;-77
2022/03/23 01:35:35;;;;;;;;;51.50;41.25;;;;;12.42;38.98;102140.97;5077567;27;46119;-76
2022/03/23 01:38:00;;;;;;;;;43.00;34.00;;;;;12.49;38.78;102161.38;5076169;28;45511;-80
2022/03/23 01:40:26;;;;;;;;;39.50;35.25;;;;;12.47;38.94;102157.81;5078047;27;45818;-76
2022/03/23 01:42:51;;;;;;;;;33.50;29.25;;;;;12.45;38.89;102163.91;5077905;27;45365;-77
2022/03/23 01:45:17;;;;;;;;;38.50;35.25;;;;;12.43;38.00;102161.25;5077660;27;46091;-79
2022/03/23 01:47:43;;;;;;;;;32.50;31.00;;;;;12.38;38.85;102159.38;5075161;27;45364;-79
2022/03/23 01:50:09;;;;;;;;;38.00;36.00;;;;;12.35;38.32;102148.72;5077589;27;45260;-75
2022/03/23 01:52:35;;;;;;;;;36.25;32.25;;;;;12.32;37.71;102157.47;5077597;27;45222;-79
2022/03/23 01:55:04;;;;;;;;;35.00;32.00;;;;;12.33;37.52;102161.00;5074361;27;45353;-78
2022/03/23 01:57:30;;;;;;;;;39.00;34.00;;;;;12.26;37.53;102152.03;5076336;27;45421;-79
2022/03/23 01:59:55;;;;;;;;;42.50;36.25;;;;;12.25;37.68;102152.88;5077771;27;45289;-78
2022/03/23 02:02:21;;;;;;;;;37.75;35.00;;;;;12.23;37.96;102151.97;5077264;27;45505;-77
2022/03/23 02:04:46;;;;;;;;;46.75;36.75;;;;;12.16;38.04;102147.38;5077530;27;45329;-79
2022/03/23 02:07:14;;;;;;;;;43.25;37.00;;;;;12.08;37.67;102146.31;5077103;27;45324;-81
2022/03/23 02:09:39;;;;;;;;;37.50;33.75;;;;;12.13;38.19;102147.34;5075318;27;45267;-77
2022/03/23 02:12:08;;;;;;;;;37.00;34.25;;;;;12.09;38.03;102153.38;5077008;27;45421;-77
2022/03/23 02:14:35;;;;;;;;;37.50;32.00;;;;;11.99;37.79;102150.50;5076679;27;45435;-77
2022/03/23 02:17:01;;;;;;;;;44.25;36.25;;;;;12.01;38.02;102145.31;5075517;28;45675;-76
2022/03/23 02:19:27;;;;;;;;;40.50;33.50;;;;;12.02;38.13;102156.75;5075765;27;45301;-78
2022/03/23 02:21:53;;;;;;;;;43.00;35.50;;;;;11.98;37.82;102154.00;5077334;27;45267;-76
2022/03/23 02:24:23;;;;;;;;;37.75;33.75;;;;;11.96;37.92;102154.84;5080013;27;45331;-77
2022/03/23 02:26:50;;;;;;;;;39.00;33.00;;;;;11.86;38.10;102137.88;5080803;27;45329;-77
2022/03/23 02:29:15;;;;;;;;;37.25;33.75;;;;;11.90;37.66;102154.69;5078686;27;45463;-76
2022/03/23 02:31:41;;;;;;;;;33.75;32.25;;;;;11.88;38.34;102145.84;5081173;27;45341;-75
2022/03/23 02:34:06;;;;;;;;;45.50;35.50;;;;;11.77;38.56;102142.91;5079923;27;46921;-79
2022/03/23 02:36:32;;;;;;;;;44.25;36.25;;;;;11.79;38.48;102154.38;5080162;27;45351;-77
2022/03/23 02:38:58;;;;;;;;;29.25;28.50;;;;;11.71;38.62;102148.91;5079958;27;45526;-79
2022/03/23 02:41:23;;;;;;;;;38.50;32.75;;;;;11.74;37.69;102150.75;5079545;27;45251;-75
2022/03/23 02:43:49;;;;;;;;;35.00;32.50;;;;;11.74;38.00;102150.75;5079934;27;46408;-78
2022/03/23 02:46:17;;;;;;;;;39.50;33.50;;;;;11.67;38.80;102156.72;5078993;27;45456;-77
2022/03/23 02:48:42;;;;;;;;;35.75;30.00;;;;;11.49;38.29;102127.22;5079356;27;45303;-78
2022/03/23 02:51:08;;;;;;;;;42.50;36.75;;;;;11.59;38.35;102163.56;5079525;28;45283;-78
2022/03/23 03:02:22;;;;;;;;;37.25;35.00;;;;;11.46;39.50;102161.47;5078890;28;45525;-79
2022/03/23 03:04:49;;;;;;;;;35.50;33.00;;;;;11.42;38.51;102163.09;5079567;27;47182;-77
2022/03/23 03:07:14;;;;;;;;;34.75;32.25;;;;;11.30;38.57;102147.84;5062027;28;45172;-77
2022/03/23 03:09:40;;;;;;;;;39.25;33.75;;;;;11.34;38.50;102162.88;5078868;27;45511;-77
2022/03/23 03:12:07;;;;;;;;;36.50;31.25;;;;;11.27;38.37;102153.03;5079393;27;45374;-77
2022/03/23 03:14:33;;;;;;;;;39.25;33.75;;;;;11.30;38.35;102168.94;5080077;27;47131;-78
2022/03/23 03:16:58;;;;;;;;;40.25;34.00;;;;;11.29;39.04;102174.19;5079190;27;45480;-79
2022/03/23 03:19:24;;;;;;;;;36.75;33.75;;;;;11.28;39.17;102167.13;5078753;27;45437;-78
2022/03/23 03:21:49;;;;;;;;;35.50;27.75;;;;;11.19;39.06;102175.69;5079091;27;45413;-77
2022/03/23 03:24:15;;;;;;;;;33.00;33.00;;;;;11.21;38.80;102184.53;5078810;27;45473;-77
2022/03/23 03:26:40;;;;;;;;;35.25;30.75;;;;;11.16;38.73;102186.13;5079815;27;45339;-77
2022/03/23 03:29:05;;;;;;;;;26.75;24.50;;;;;11.10;38.76;102178.94;5079810;27;45305;-77
2022/03/23 03:31:31;;;;;;;;;37.75;33.75;;;;;11.03;38.52;102178.72;5077943;28;45460;-79
2022/03/23 03:33:57;;;;;;;;;32.25;27.25;;;;;11.02;39.13;102185.75;5077347;27;45351;-78
2022/03/23 03:36:23;;;;;;;;;35.25;30.50;;;;;10.97;39.03;102183.81;5078480;27;45464;-77
2022/03/23 03:38:48;;;;;;;;;33.25;29.00;;;;;10.90;38.89;102185.41;5078304;28;45324;-77
2022/03/23 03:41:14;;;;;;;;;27.00;27.00;;;;;10.90;39.03;102187.16;5079120;27;45278;-75
2022/03/23 03:43:39;;;;;;;;;36.25;30.50;;;;;10.87;38.92;102189.66;5076614;28;48114;-75
2022/03/23 03:46:06;;;;;;;;;32.50;31.75;;;;;10.87;39.03;102201.09;5078874;27;45230;-77
2022/03/23 03:48:32;;;;;;;;;33.75;27.50;;;;;10.78;39.11;102199.09;5079589;27;45278;-76
2022/03/23 03:50:59;;;;;;;;;35.25;27.25;;;;;10.79;39.76;102207.88;5078405;27;45349;-77
2022/03/23 03:53:24;;;;;;;;;26.25;24.75;;;;;10.77;39.70;102204.31;5076343;27;46377;-77
2022/03/23 03:55:50;;;;;;;;;43.00;34.75;;;;;10.73;39.64;102205.09;5079565;27;45443;-80
2022/03/23 03:58:17;;;;;;;;;34.50;33.25;;;;;10.66;39.31;102198.72;5079642;27;45266;-78
2022/03/23 04:00:43;;;;;;;;;34.25;32.50;;;;;10.65;39.81;102209.22;5077098;27;45310;-75
2022/03/23 04:03:08;;;;;;;;;29.00;28.00;;;;;10.57;39.54;102195.81;5078906;27;47343;-76
2022/03/23 04:05:34;;;;;;;;;34.50;31.25;;;;;10.60;40.04;102208.19;5077342;27;45460;-77
2022/03/23 04:07:59;;;;;;;;;39.75;34.75;;;;;10.39;40.20;102184.72;5079065;27;45210;-77
2022/03/23 04:10:25;;;;;;;;;34.50;30.00;;;;;10.56;40.20;102218.63;5079104;27;45581;-76
2022/03/23 04:12:51;;;;;;;;;36.75;31.75;;;;;10.46;40.07;102203.41;5077562;27;47187;-79
2022/03/23 04:15:19;;;;;;;;;36.00;33.75;;;;;10.31;40.33;102179.19;5077968;27;45426;-78
2022/03/23 04:17:45;;;;;;;;;35.50;35.00;;;;;10.41;40.26;102206.72;5078257;27;45350;-78
2022/03/23 04:20:11;;;;;;;;;36.50;31.75;;;;;10.44;40.26;102218.25;5078676;27;45476;-80
2022/03/23 04:22:38;;;;;;;;;32.50;29.00;;;;;10.44;40.60;102223.53;5077873;27;46462;-78
2022/03/23 04:25:09;;;;;;;;;29.75;27.50;;;;;10.44;41.04;102227.91;5077725;27;45545;-79
2022/03/23 04:27:43;;;;;;;;;36.25;31.00;;;;;10.37;40.77;102233.81;5077188;27;45360;-77
2022/03/23 04:30:10;;;;;;;;;30.25;30.25;;;;;10.41;40.65;102227.78;5077953;27;47392;-78
2022/03/23 04:32:35;;;;;;;;;41.75;33.00;;;;;10.37;41.00;102232.06;5076954;27;45378;-77
2022/03/23 04:35:00;;;;;;;;;35.25;33.50;;;;;10.28;41.10;102232.69;5078125;27;45271;-78
2022/03/23 04:37:26;;;;;;;;;32.25;27.50;;;;;10.31;41.00;102231.88;5077634;27;45503;-78
2022/03/23 04:39:51;;;;;;;;;34.50;32.75;;;;;10.20;40.80;102223.59;5078899;27;45317;-78
2022/03/23 04:42:17;;;;;;;;;42.75;34.00;;;;;10.20;41.10;102218.31;5077642;27;45889;-75
2022/03/23 04:44:42;;;;;;;;;36.00;32.75;;;;;10.24;41.08;102238.69;5077268;27;45547;-76
2022/03/23 04:47:08;;;;;;;;;33.25;33.25;;;;;10.21;41.57;102238.53;5077155;27;45432;-75
2022/03/23 04:49:33;;;;;;;;;34.50;31.75;;;;;10.22;41.44;102250.00;5078634;27;45349;-78
2022/03/23 04:51:58;;;;;;;;;33.00;29.50;;;;;10.19;40.95;102236.72;5078640;27;46073;-77
2022/03/23 04:54:24;;;;;;;;;30.00;27.75;;;;;10.18;41.15;102243.72;5078170;27;45302;-78
2022/03/23 04:56:49;;;;;;;;;35.75;32.50;;;;;10.13;41.04;102242.66;5077298;27;45190;-78
2022/03/23 04:59:15;;;;;;;;;32.25;32.25;;;;;10.17;41.38;102243.69;5077870;27;45505;-78
2022/03/23 05:01:40;;;;;;;;;36.75;32.50;;;;;10.16;41.47;102244.53;5077942;27;47070;-77
2022/03/23 05:04:06;;;;;;;;;31.25;28.25;;;;;10.19;41.04;102249.88;5076658;27;45947;-78
2022/03/23 05:06:32;;;;;;;;;36.75;32.75;;;;;10.15;41.60;102254.16;5077515;27;45322;-78
2022/03/23 05:08:57;;;;;;;;;38.00;34.75;;;;;9.99;41.55;102230.78;5077449;27;45243;-77
2022/03/23 05:11:23;;;;;;;;;34.75;34.00;;;;;10.10;41.59;102249.56;5077779;27;46047;-76
2022/03/23 05:13:49;;;;;;;;;35.50;32.50;;;;;10.04;41.48;102237.09;5077124;27;45330;-78
2022/03/23 05:16:14;;;;;;;;;32.75;31.75;;;;;10.11;41.54;102254.00;5078024;27;45524;-76
2022/03/23 05:18:41;;;;;;;;;37.75;32.75;;;;;10.09;41.73;102250.41;5076860;28;45404;-76
2022/03/23 05:21:07;;;;;;;;;31.00;25.00;;;;;10.12;41.82;102251.41;5077868;27;47095;-77
2022/03/23 05:23:32;;;;;;;;;32.25;29.50;;;;;10.13;42.00;102258.47;5077222;27;45314;-77
2022/03/23 05:25:57;;;;;;;;;27.00;25.50;;;;;10.10;41.69;102247.84;5077760;27;46862;-77
2022/03/23 05:28:23;;;;;;;;;32.25;28.00;;;;;10.01;41.61;102231.72;5078174;27;45420;-77
2022/03/23 05:30:48;;;;;;;;;40.75;36.25;;;;;10.13;42.72;102255.81;5076553;27;47453;-76
2022/03/23 05:33:13;;;;;;;;;36.25;30.50;;;;;10.09;41.59;102245.16;5077494;27;45402;-75
2022/03/23 05:35:39;;;;;;;;;42.50;34.00;;;;;10.11;42.45;102257.53;5078510;27;45224;-77
2022/03/23 05:38:05;;;;;;;;;29.75;29.75;;;;;10.11;43.02;102265.41;5078412;27;45587;-76
2022/03/23 05:40:30;;;;;;;;;32.00;28.50;;;;;10.06;43.08;102256.50;5078806;27;46107;-77
2022/03/23 05:42:55;;;;;;;;;35.00;31.00;;;;;10.10;42.19;102265.38;5081372;28;45296;-77
2022/03/23 05:45:21;;;;;;;;;35.25;30.25;;;;;10.08;42.62;102265.31;5079116;27;45317;-77
2022/03/23 05:47:48;;;;;;;;;38.25;33.50;;;;;10.09;42.18;102259.22;5078618;27;45461;-76
2022/03/23 05:50:14;;;;;;;;;35.00;31.00;;;;;10.09;42.86;102266.22;5076005;27;47519;-77
2022/03/23 05:52:40;;;;;;;;;32.25;31.00;;;;;10.10;42.02;102262.75;5077232;27;45317;-76
2022/03/23 05:55:07;;;;;;;;;49.25;41.00;;;;;10.11;43.75;102268.06;5075482;28;45440;-77
2022/03/23 05:57:33;;;;;;;;;36.00;34.75;;;;;10.09;43.57;102269.75;5078312;27;45547;-79
2022/03/23 05:59:59;;;;;;;;;32.00;31.00;;;;;10.03;43.35;102250.19;5080900;27;46552;-78
2022/03/23 06:02:25;;;;;;;;;29.75;29.75;;;;;10.10;42.40;102258.38;5078758;28;45366;-78
2022/03/23 06:04:51;;;;;;;;;40.25;35.75;;;;;10.15;41.61;102269.97;5081747;27;45397;-80
2022/03/23 06:07:17;;;;;;;;;37.75;35.50;;;;;10.19;43.89;102265.69;5079867;27;45401;-74
2022/03/23 06:09:43;;;;;;;;;39.25;33.00;;;;;10.02;45.12;102241.41;5079605;27;46139;-78
2022/03/23 06:12:11;;;;;;;;;38.75;35.25;;;;;10.12;44.60;102258.41;5080729;27;45411;-77
2022/03/23 06:14:37;;;;;;;;;40.75;36.25;;;;;10.13;44.91;102271.63;5078736;27;45482;-76
2022/03/23 06:17:03;;;;;;;;;35.75;32.25;;;;;10.09;43.23;102274.13;5079270;27;45390;-77
2022/03/23 06:19:28;;;;;;;;;29.50;27.25;;;;;10.09;42.97;102282.03;5072818;27;46183;-79
2022/03/23 06:21:53;;;;;;;;;34.00;29.75;;;;;10.10;42.81;102282.06;5079630;27;45305;-77
2022/03/23 06:24:19;;;;;;;;;38.00;32.50;;;;;10.07;42.63;102289.88;5078449;27;45455;-75
2022/03/23 06:26:44;;;;;;;;;37.50;29.25;;;;;10.08;42.89;102281.13;5079092;27;45262;-78
2022/03/23 06:29:20;;;;;;;;;29.25;26.50;;;;;10.13;42.76;102291.78;5076954;27;46076;-79
2022/03/23 06:31:45;;;;;;;;;21.50;20.75;;;;;10.20;42.26;102294.69;5068477;28;45423;-79
2022/03/23 06:34:11;;;;;;;;;37.75;32.00;;;;;10.15;43.01;102279.59;5066442;27;45435;-77
2022/03/23 06:36:37;;;;;;;;;35.00;32.50;;;;;10.21;43.23;102299.13;5080289;28;45564;-76
2022/03/23 06:39:04;;;;;;;;;38.75;35.25;;;;;10.07;43.64;102276.72;5077698;27;45480;-77
2022/03/23 06:41:30;;;;;;;;;33.75;31.25;;;;;10.24;42.57;102295.75;5062291;28;45570;-77
2022/03/23 06:43:55;;;;;;;;;37.25;34.75;;;;;10.31;43.32;102304.72;5063323;28;45308;-76
2022/03/23 06:46:21;;;;;;;;;29.50;25.50;;;;;10.34;42.65;102305.75;5069876;27;45469;-77
2022/03/23 06:48:47;;;;;;;;;37.00;35.25;;;;;10.34;42.36;102311.03;5079719;27;46357;-77
2022/03/23 06:51:13;;;;;;;;;36.00;32.00;;;;;10.34;42.49;102303.13;5079144;27;45709;-76
2022/03/23 06:53:39;;;;;;;;;32.75;32.00;;;;;10.33;42.22;102308.31;5077876;27;45538;-78
2022/03/23 06:56:04;;;;;;;;;40.75;30.25;;;;;10.32;41.29;102307.41;5079904;27;45577;-77
2022/03/23 06:58:30;;;;;;;;;45.00;35.25;;;;;10.33;42.07;102313.56;5079158;27;46595;-77
2022/03/23 07:00:57;;;;;;;;;37.00;33.75;;;;;10.27;41.29;102309.00;5080173;28;45223;-77
2022/03/23 07:03:23;;;;;;;;;34.50;32.00;;;;;10.38;40.97;102323.44;5079421;27;45396;-80
2022/03/23 07:05:48;;;;;;;;;37.50;32.75;;;;;10.41;40.57;102328.78;5080305;27;45366;-77
2022/03/23 07:10:57;;;;;;;;;34.50;33.75;;;;;10.48;41.17;102322.00;5079486;28;45374;-76
2022/03/23 07:13:23;;;;;;;;;36.00;33.00;;;;;10.60;40.41;102327.66;5079594;27;45550;-75
2022/03/23 07:15:48;;;;;;;;;27.25;27.25;;;;;10.70;40.72;102334.13;5079811;27;45188;-75
2022/03/23 07:18:14;;;;;;;;;34.00;30.50;;;;;10.78;40.19;102341.44;5078122;27;46500;-76
2022/03/23 07:20:39;;;;;;;;;33.00;31.00;;;;;10.87;39.73;102340.84;5077653;27;45587;-77
2022/03/23 07:23:05;;;;;;;;;26.50;26.25;;;;;10.94;39.54;102344.56;5078567;27;45394;-75
2022/03/23 07:25:30;;;;;;;;;36.00;30.00;;;;;11.03;39.21;102344.88;5077976;27;45321;-74
2022/03/23 07:27:56;;;;;;;;;38.25;33.25;;;;;11.09;39.36;102331.88;5077554;27;46192;-77
2022/03/23 07:30:23;;;;;;;;;34.00;29.50;;;;;11.16;39.18;102328.56;5076358;27;45404;-76
2022/03/23 07:32:50;;;;;;;;;40.25;33.00;;;;;11.24;38.56;102326.16;5078588;27;45541;-79
2022/03/23 07:35:15;;;;;;;;;26.25;26.25;;;;;11.39;37.53;102345.97;5077792;27;45543;-79
2022/03/23 07:37:40;;;;;;;;;36.00;32.25;;;;;11.42;37.69;102356.63;5078201;27;46137;-78
2022/03/23 07:40:06;;;;;;;;;27.75;26.75;;;;;11.48;38.47;102348.00;5076517;27;45417;-77
2022/03/23 07:42:38;;;;;;;;;40.50;30.00;;;;;11.33;37.93;102327.31;5078517;27;45531;-78
2022/03/23 07:45:05;;;;;;;;;33.00;32.25;;;;;11.49;37.69;102340.97;5078655;27;45303;-78
2022/03/23 07:47:31;;;;;;;;;34.50;31.00;;;;;11.60;37.65;102348.34;5079013;27;45297;-76
2022/03/23 07:50:03;;;;;;;;;28.00;27.25;;;;;11.71;37.63;102353.94;5077394;28;45544;-78
2022/03/23 07:52:29;;;;;;;;;26.75;26.25;;;;;11.83;38.29;102349.06;5074547;27;45494;-78
2022/03/23 07:54:54;;;;;;;;;35.75;33.25;;;;;11.92;37.06;102344.03;5076603;27;45867;-75
2022/03/23 07:57:20;;;;;;;;;30.50;29.75;;;;;11.99;37.20;102345.06;5076587;27;47053;-76
2022/03/23 07:59:46;;;;;;;;;33.75;29.75;;;;;12.08;37.07;102363.81;5075689;27;45430;-74
2022/03/23 08:02:12;;;;;;;;;30.50;28.75;;;;;12.11;36.61;102358.63;5074858;27;47040;-76
2022/03/23 08:04:38;;;;;;;;;40.50;31.50;;;;;12.24;36.79;102352.81;5076529;27;45436;-74
2022/03/23 08:07:07;;;;;;;;;33.25;33.25;;;;;12.28;36.02;102356.41;5076115;27;47212;-75
2022/03/23 08:09:33;;;;;;;;;33.25;31.00;;;;;12.42;36.81;102370.91;5074297;27;45452;-77
2022/03/23 08:11:59;;;;;;;;;33.00;31.25;;;;;12.50;36.71;102360.53;5076935;27;45227;-77
2022/03/23 08:14:25;;;;;;;;;35.75;31.75;;;;;12.61;35.86;102366.97;5075562;27;45429;-78
2022/03/23 08:16:52;;;;;;;;;31.50;28.25;;;;;12.72;35.92;102369.88;5076475;27;46058;-78
2022/03/23 08:19:19;;;;;;;;;30.00;27.25;;;;;12.79;35.88;102375.34;5076129;27;45435;-78
2022/03/23 08:21:45;;;;;;;;;35.00;31.50;;;;;12.65;35.34;102346.78;5076205;27;45477;-79
2022/03/23 08:24:10;;;;;;;;;38.25;32.00;;;;;12.86;35.42;102373.78;5076854;27;45462;-81
2022/03/23 08:26:36;;;;;;;;;35.25;33.00;;;;;12.92;35.00;102384.47;5074589;27;46028;-82
2022/03/23 08:29:01;;;;;;;;;23.50;23.50;;;;;12.86;34.66;102383.44;5075981;27;45394;-80
2022/03/23 08:31:27;;;;;;;;;36.75;31.00;;;;;12.92;35.20;102381.81;5076761;27;45438;-79
2022/03/23 08:33:52;;;;;;;;;35.50;30.00;;;;;13.01;34.03;102381.16;5077314;27;45392;-80
2022/03/23 08:36:18;;;;;;;;;27.00;25.75;;;;;13.08;34.89;102384.00;5074086;28;46025;-80
2022/03/23 08:38:43;;;;;;;;;30.25;30.25;;;;;12.98;35.36;102366.13;5077140;27;45439;-80
2022/03/23 08:41:08;;;;;;;;;35.00;32.25;;;;;12.98;34.60;102376.69;5075075;28;45373;-80
2022/03/23 08:43:34;;;;;;;;;28.50;25.75;;;;;13.02;35.39;102378.53;5077265;27;45367;-78
2022/03/23 08:46:00;;;;;;;;;31.50;31.50;;;;;13.06;34.98;102380.41;5075772;28;46340;-80
2022/03/23 08:48:26;;;;;;;;;33.00;31.25;;;;;13.10;34.95;102382.25;5076530;27;45463;-80
2022/03/23 08:50:51;;;;;;;;;37.75;32.00;;;;;13.26;34.69;102380.91;5076286;27;45493;-80
2022/03/23 08:53:18;;;;;;;;;30.25;27.50;;;;;13.66;34.43;102379.13;5077607;27;45542;-80
2022/03/23 08:55:45;;;;;;;;;34.75;32.75;;;;;14.27;32.95;102375.03;5077055;28;45441;-81
2022/03/23 08:58:10;;;;;;;;;36.50;30.75;;;;;15.17;32.43;102378.31;5074971;28;45322;-79
2022/03/23 09:00:37;;;;;;;;;34.50;31.50;;;;;16.46;30.58;102371.94;5076530;27;45408;-79
2022/03/23 09:03:03;;;;;;;;;30.25;27.25;;;;;20.29;25.78;102377.03;5086153;27;46081;-83
2022/03/23 09:05:29;;;;;;;;;30.75;28.00;;;;;24.34;20.41;102344.97;5076758;27;46625;-84
2022/03/23 09:07:56;;;;;;;;;27.25;23.50;;;;;27.23;18.26;102380.41;5076314;27;45330;-85
2022/03/23 09:10:23;;;;;;;;;24.50;24.00;;;;;29.74;16.21;102378.22;5074273;28;45544;-81
2022/03/23 09:12:48;;;;;;;;;28.33;27.00;;;;;31.80;14.75;102345.84;5073770;28;45577;-84
2022/03/23 09:15:16;;;;;;;;;22.00;18.33;;;;;33.74;13.10;102372.38;5070640;27;46000;-82
2022/03/23 09:17:42;;;;;;;;;30.67;26.00;;;;;35.27;12.32;102353.81;5066351;28;45543;-81
2022/03/23 09:20:09;;;;;;;;;22.33;22.33;;;;;36.71;11.77;102330.31;5073754;27;45535;-87
2022/03/23 09:22:34;;;;;;;;;24.00;21.33;;;;;37.88;10.92;102341.97;5073821;28;45425;-84
2022/03/23 09:25:07;;;;;;;;;22.50;22.50;;;;;38.92;10.03;102367.06;5075702;27;45794;-84
2022/03/23 09:27:34;;;;;;;;;20.00;19.25;;;;;39.44;9.88;102359.69;5082152;27;45534;-84
2022/03/23 09:30:01;;;;;;;;;25.40;22.40;;;;;40.52;8.75;102354.38;5064473;28;45326;-85
2022/03/23 09:32:26;;;;;;;;;23.60;22.40;;;;;41.06;8.17;102377.78;5052828;28;45521;-88
2022/03/23 09:34:52;;;;;;;;;20.00;20.00;;;;;41.56;8.01;102374.72;5056885;28;46527;-84
2022/03/23 09:40:02;;;;;;;;;21.20;19.00;;;;;42.93;6.97;102374.59;5053190;28;46858;-84
2022/03/23 09:42:29;;;;;;;;;21.80;21.00;;;;;42.49;7.64;102376.41;5053760;28;45350;-81
2022/03/23 09:44:55;;;;;;;;;21.60;19.40;;;;;42.71;7.78;102341.78;5053604;28;46154;-84
2022/03/23 09:47:21;;;;;;;;;16.40;14.80;;;;;42.51;7.11;102362.38;5056080;28;45587;-84
2022/03/23 09:49:46;;;;;;;;;23.00;23.00;;;;;42.49;7.20;102370.84;5054011;28;45463;-88
2022/03/23 09:52:12;;;;;;;;;23.25;20.50;;;;;42.26;7.46;102369.59;5054133;28;45697;-84
2022/03/23 09:54:37;;;;;;;;;23.00;23.00;;;;;40.22;8.10;102351.72;5054239;28;45634;-80
2022/03/23 09:57:06;;;;;;;;;19.00;18.50;;;;;40.90;8.65;102370.09;5055320;28;45528;-89
2022/03/23 09:59:32;;;;;;;;;22.00;20.80;;;;;40.99;7.81;102349.84;5055104;28;45278;-87
2022/03/23 10:02:00;;;;;;;;;23.00;21.80;;;;;38.96;8.62;102363.00;5056019;28;45262;-84
2022/03/23 10:05:23;;;;;;;;;15.60;15.00;;;;;39.15;8.27;102362.28;5085118;28;47197;-88
2022/03/23 10:08:01;;;;;;;;;22.20;20.80;;;;;40.86;7.87;102329.94;5058159;28;45248;-85
2022/03/23 10:11:03;;;;;;;;;23.00;21.40;;;;;42.33;6.87;102367.91;5055547;28;45329;-82
2022/03/23 10:14:19;;;;;;;;;21.60;19.00;;;;;43.38;6.53;102367.13;5058097;28;45371;-82
2022/03/23 10:17:21;;;;;;;;;18.00;18.00;;;;;43.58;6.94;102362.19;5057143;28;46582;-84
2022/03/23 10:19:47;;;;;;;;;25.20;23.20;;;;;42.95;7.22;102364.22;5057005;28;45349;-82
2022/03/23 10:22:14;;;;;;;;;19.50;19.50;;;;;42.61;7.09;102363.19;5057258;28;45282;-82
2022/03/23 10:24:40;;;;;;;;;23.60;20.20;;;;;42.52;7.10;102340.03;5057470;28;45331;-86
2022/03/23 10:27:17;;;;;;;;;20.80;20.80;;;;;43.61;7.13;102364.63;5058372;28;45729;-83
2022/03/23 10:29:45;;;;;;;;;21.00;21.00;;;;;44.27;6.55;102355.50;5057691;28;45585;-86
2022/03/23 10:32:11;;;;;;;;;23.00;20.80;;;;;44.65;5.80;102359.56;5057866;28;45211;-85
2022/03/23 10:34:55;;;;;;;;;17.25;17.25;;;;;44.74;6.35;102357.66;5057827;28;45191;-84
2022/03/23 10:37:31;;;;;;;;;20.20;20.20;;;;;44.70;5.88;102354.38;5054859;28;46125;-82
2022/03/23 10:40:00;;;;;;;;;16.60;16.60;;;;;44.28;6.00;102321.13;5044111;28;45309;-81
2022/03/23 10:42:32;;;;;;;;;24.00;22.20;;;;;44.22;5.85;102327.41;5039941;28;45390;-83
2022/03/23 10:45:16;;;;;;;;;19.20;17.80;;;;;44.01;6.10;102311.16;5054637;28;45421;-83
2022/03/23 10:47:44;;;;;;;;;23.40;22.40;;;;;43.55;6.45;102340.28;5053663;28;47118;-79
2022/03/23 10:50:19;;;;;;;;;20.60;20.40;;;;;43.65;6.40;102335.47;5041972;28;45311;-83
2022/03/23 10:52:58;;;;;;;;;19.40;19.00;;;;;42.63;5.95;102331.53;5043414;28;45568;-82
2022/03/23 10:55:26;;;;;;;;;21.20;21.20;;;;;39.20;7.81;102313.16;5043643;28;45621;-82
2022/03/23 10:57:52;;;;;;;;;20.00;19.00;;;;;37.38;8.85;102316.72;5050842;28;45341;-83
2022/03/23 11:00:32;;;;;;;;;20.50;19.75;;;;;34.32;10.06;102322.06;5044879;28;45241;-85
2022/03/23 11:02:59;;;;;;;;;20.80;20.20;;;;;32.23;11.46;102307.94;5042532;28;45502;-80
2022/03/23 11:05:38;;;;;;;;;15.80;15.80;;;;;30.71;12.20;102318.13;5056698;28;45468;-87
2022/03/23 11:08:15;;;;;;;;;23.80;21.40;;;;;29.47;13.12;102315.16;5052357;28;45438;-85
2022/03/23 11:16:27;;;;;;;;;25.75;23.00;;;;;26.49;14.91;102283.84;5046684;28;45173;-83
2022/03/23 11:19:11;;;;;;;;;22.75;22.75;;;;;26.02;15.15;102280.88;5053189;28;46024;-87
2022/03/23 11:21:59;;;;;;;;;22.00;20.75;;;;;25.52;15.47;102299.53;5057311;28;46150;-87
2022/03/23 11:24:26;;;;;;;;;26.75;22.75;;;;;24.91;15.32;102290.47;5049581;28;46389;-84
2022/03/23 11:26:53;;;;;;;;;24.33;24.00;;;;;24.08;16.07;102264.75;5054971;28;45584;-85
2022/03/23 11:29:19;;;;;;;;;21.33;20.33;;;;;23.71;16.56;102297.03;5060427;28;45954;-86